Forside
METAR-TAF:

METAR-TAF

Lufthavne :

Price County Airport

Phillips, Wisconsin, USA

Breddekreds: 45-42N, længdekreds: 090-24W, højde: 449 m

Aktuelle vejr

Denne rapport blev lavet for 20 minutter siden, kl. 11:35 UTC
Vind 10 kt fra sydøst med vindstød på up til 16 kt
Temperatur -3°C
Fugtighed 86%
Tryk 1020 hPa
Sigt: 16.1 km
Spredte skyer i en højde af 2800 ft
Overskyet i en højde af 7000 ft

METAR: KPBH 241135Z AUTO 14010G16KT 10SM SCT028 OVC070 M03/M05 A3011 RMK AO2 T10281047

Tid: 05:55 (11:55 UTC)


TAF: fraværende

Vejrobservationer og prognoser fra mere end 4000 lufthavne (METAR og TAF).

De gule og røde prikker repræsenterer de meteorologiske stationer.

Flyt musen over at se navnet på stationen.

Så klik over at se vejr observationer og prognoser.

At skifte det kort: Klik på de grønne knapper med et sort kors for at zoome ind; på den grønne knap med en bindestreg for at zoome ud; eller på de grønne pile for tilstødende kort.


METAR-TAF: